Time;durP1;ratioP1;P1;durP2;ratioP2;P2;SDS_P1;SDS_P2;PMS_P1;PMS_P2;Temp;Humidity;BMP_temperature;BMP_pressure;BME280_temperature;BME280_humidity;BME280_pressure;Samples;Min_cycle;Max_cycle;Signal;HPM_P1;HPM_P2
2021/03/06 00:00:24;;;;;;;5.90;2.47;;;-4.70;80.20;;;;;;5077589;28;20028;-75
2021/03/06 00:02:51;;;;;;;3.70;2.90;;;-4.70;80.10;;;;;;5095136;28;20058;-79
2021/03/06 00:05:18;;;;;;;5.60;3.10;;;-4.60;80.20;;;;;;5077390;28;20481;-75
2021/03/06 00:07:44;;;;;;;4.82;2.83;;;-4.60;80.20;;;;;;5077482;28;20051;-76
2021/03/06 00:10:12;;;;;;;4.15;3.13;;;-4.70;80.10;;;;;;5095556;28;20027;-74
2021/03/06 00:12:39;;;;;;;;;;;-4.70;80.80;;;;;;5095808;28;20016;-77
2021/03/06 00:15:06;;;;;;;4.07;2.63;;;-4.70;79.90;;;;;;5095720;28;19908;-76
2021/03/06 00:17:33;;;;;;;4.15;3.38;;;-4.70;79.90;;;;;;5095564;28;20028;-78
2021/03/06 00:19:59;;;;;;;5.13;3.17;;;-4.70;80.10;;;;;;5094575;28;20028;-76
2021/03/06 00:22:27;;;;;;;4.60;3.85;;;-4.70;80.20;;;;;;5077172;28;20028;-77
2021/03/06 00:24:55;;;;;;;4.28;3.50;;;-4.70;80.20;;;;;;5092744;28;20017;-75
2021/03/06 00:27:20;;;;;;;4.35;3.25;;;-4.70;80.20;;;;;;5095552;28;20024;-77
2021/03/06 00:29:46;;;;;;;6.85;2.70;;;-4.70;80.10;;;;;;5095253;28;20105;-76
2021/03/06 00:32:18;;;;;;;7.18;3.67;;;-4.70;80.00;;;;;;5095424;28;20017;-77
2021/03/06 00:34:44;;;;;;;5.00;3.22;;;-4.70;80.10;;;;;;5095197;28;20017;-75
2021/03/06 00:37:10;;;;;;;4.80;2.88;;;-4.80;80.10;;;;;;5094792;28;20542;-75
2021/03/06 00:39:36;;;;;;;5.78;3.15;;;-4.80;80.10;;;;;;5092930;28;20426;-75
2021/03/06 00:42:03;;;;;;;3.40;2.47;;;-4.90;80.30;;;;;;5089631;28;20028;-76
2021/03/06 00:44:29;;;;;;;5.07;2.80;;;-4.90;80.50;;;;;;5076938;28;20451;-77
2021/03/06 00:46:56;;;;;;;5.68;3.00;;;-5.00;80.40;;;;;;5094789;28;20111;-75
2021/03/06 00:49:23;;;;;;;7.05;3.83;;;-5.00;80.50;;;;;;5076767;28;20052;-76
2021/03/06 00:51:49;;;;;;;8.45;3.75;;;-5.10;80.40;;;;;;5076490;28;20031;-77
2021/03/06 00:54:15;;;;;;;3.92;3.35;;;-5.10;81.20;;;;;;5093718;28;20150;-75
2021/03/06 00:56:56;;;;;;;6.00;3.80;;;-5.10;80.70;;;;;;5075747;28;20035;-78
2021/03/06 00:59:29;;;;;;;4.85;3.58;;;-5.10;81.00;;;;;;5090622;28;20051;-76
2021/03/06 01:02:04;;;;;;;5.65;3.10;;;-5.10;80.70;;;;;;5094852;28;20032;-76
2021/03/06 01:04:30;;;;;;;4.40;2.83;;;-5.20;80.70;;;;;;5094755;28;20055;-74
2021/03/06 01:06:55;;;;;;;3.15;2.83;;;-5.20;80.70;;;;;;5094599;28;20450;-74
2021/03/06 01:09:21;;;;;;;7.15;3.00;;;-5.20;80.80;;;;;;5094687;28;20027;-75
2021/03/06 01:11:47;;;;;;;4.35;3.42;;;-5.30;80.90;;;;;;5093712;28;20013;-75
2021/03/06 01:14:13;;;;;;;7.07;3.17;;;-5.30;81.00;;;;;;5094722;28;20032;-75
2021/03/06 01:16:39;;;;;;;4.68;3.33;;;-5.30;81.00;;;;;;5083017;28;20019;-77
2021/03/06 01:19:05;;;;;;;10.60;3.97;;;-5.30;81.00;;;;;;5076505;28;20480;-75
2021/03/06 01:21:32;;;;;;;6.15;4.05;;;-5.40;81.00;;;;;;5076384;28;20032;-75
2021/03/06 01:23:58;;;;;;;6.75;3.72;;;-5.40;81.00;;;;;;5094520;28;20027;-75
2021/03/06 01:26:24;;;;;;;8.18;3.85;;;-5.40;81.00;;;;;;5094368;28;20055;-76
2021/03/06 01:28:49;;;;;;;5.47;3.10;;;-5.40;81.10;;;;;;5093554;28;20023;-73
2021/03/06 01:31:15;;;;;;;8.18;3.33;;;-5.40;81.20;;;;;;5075957;28;20036;-76
2021/03/06 01:33:41;;;;;;;6.30;3.40;;;-5.50;81.30;;;;;;5094297;28;20035;-77
2021/03/06 01:36:07;;;;;;;6.25;3.63;;;-5.50;81.10;;;;;;5093508;28;20020;-74
2021/03/06 01:38:33;;;;;;;6.90;3.83;;;-5.50;80.90;;;;;;5094611;28;20024;-78
2021/03/06 01:40:59;;;;;;;7.63;3.13;;;-5.60;80.80;;;;;;5074593;28;20040;-75
2021/03/06 01:43:25;;;;;;;4.00;3.00;;;-5.60;80.80;;;;;;5093439;28;20025;-76
2021/03/06 01:45:51;;;;;;;4.35;3.55;;;-5.60;80.80;;;;;;5092868;28;20094;-75
2021/03/06 01:48:16;;;;;;;6.93;3.65;;;-5.70;80.80;;;;;;5072480;28;20027;-75
2021/03/06 01:50:45;;;;;;;6.00;3.25;;;-5.70;80.90;;;;;;5093856;28;20016;-74
2021/03/06 01:53:13;;;;;;;4.25;3.75;;;-5.70;80.70;;;;;;5062906;28;20078;-75
2021/03/06 01:55:45;;;;;;;5.22;3.38;;;-5.80;80.60;;;;;;5092546;28;20016;-74
2021/03/06 01:58:12;;;;;;;3.85;3.42;;;-5.80;80.50;;;;;;5071981;28;20040;-73
2021/03/06 02:00:38;;;;;;;7.97;3.97;;;-5.80;80.60;;;;;;5091499;28;20055;-75
2021/03/06 02:03:04;;;;;;;5.93;2.78;;;-5.80;80.60;;;;;;5075178;28;20078;-76
2021/03/06 02:05:30;;;;;;;4.18;2.58;;;-5.90;80.60;;;;;;5092641;28;20110;-76
2021/03/06 02:07:56;;;;;;;12.80;3.67;;;-5.90;80.50;;;;;;5082902;28;20025;-74
2021/03/06 02:10:28;;;;;;;6.97;2.88;;;-5.90;80.50;;;;;;5076802;28;20021;-76
2021/03/06 02:13:06;;;;;;;4.53;3.60;;;-5.90;80.20;;;;;;5091801;28;20057;-74
2021/03/06 02:15:45;;;;;;;7.63;3.40;;;-5.90;80.10;;;;;;5093366;28;20033;-75
2021/03/06 02:18:23;;;;;;;8.40;3.70;;;-6.00;80.10;;;;;;5074726;28;20505;-73
2021/03/06 02:21:02;;;;;;;6.20;4.03;;;-5.90;80.00;;;;;;5092780;28;20418;-75
2021/03/06 02:24:08;;;;;;;5.28;3.13;;;-6.00;79.80;;;;;;5093253;28;20020;-75
2021/03/06 02:26:50;;;;;;;7.65;3.30;;;-6.00;79.90;;;;;;5092928;28;20071;-74
2021/03/06 02:29:42;;;;;;;6.60;3.15;;;-6.00;79.80;;;;;;5092479;28;20428;-75
2021/03/06 02:32:15;;;;;;;11.48;4.18;;;-6.00;79.80;;;;;;5057976;28;20020;-74
2021/03/06 02:34:50;;;;;;;7.57;4.65;;;-6.00;80.10;;;;;;5074746;28;20046;-75
2021/03/06 02:37:20;;;;;;;8.55;5.60;;;-6.00;80.80;;;;;;5092812;28;20024;-74
2021/03/06 02:39:50;;;;;;;7.32;4.68;;;-6.10;81.00;;;;;;5074469;28;20031;-75
2021/03/06 02:42:24;;;;;;;6.78;4.85;;;-6.10;81.50;;;;;;5092806;28;20024;-73
2021/03/06 02:44:51;;;;;;;14.50;6.32;;;-6.10;81.90;;;;;;5092564;28;20020;-74
2021/03/06 02:47:18;;;;;;;8.98;5.80;;;-6.20;82.10;;;;;;5074449;28;20028;-75
2021/03/06 02:49:45;;;;;;;8.30;5.18;;;-6.20;82.30;;;;;;5092844;28;20162;-75
2021/03/06 02:52:11;;;;;;;;;;;-6.20;82.40;;;;;;5092975;28;20489;-73
2021/03/06 02:54:37;;;;;;;8.50;4.57;;;-6.30;82.00;;;;;;5063709;28;20022;-74
2021/03/06 02:57:03;;;;;;;10.52;6.28;;;-6.30;82.30;;;;;;5090501;28;20022;-74
2021/03/06 02:59:37;;;;;;;9.93;4.97;;;-6.30;82.50;;;;;;5074544;28;20024;-74
2021/03/06 03:02:35;;;;;;;8.80;4.75;;;-6.30;82.70;;;;;;5092398;28;20376;-76
2021/03/06 03:05:07;;;;;;;8.60;5.68;;;-6.40;82.90;;;;;;5082853;28;20025;-74
2021/03/06 03:07:46;;;;;;;7.95;5.75;;;-6.30;83.10;;;;;;5066113;28;20020;-74
2021/03/06 03:10:15;;;;;;;10.18;6.63;;;-6.40;83.10;;;;;;5074449;28;20357;-74
2021/03/06 03:12:55;;;;;;;10.13;6.10;;;-6.40;83.10;;;;;;5074446;28;20389;-74
2021/03/06 03:15:38;;;;;;;10.77;6.18;;;-6.40;83.20;;;;;;5092847;28;20020;-74
2021/03/06 03:18:06;;;;;;;7.88;5.65;;;-6.40;83.30;;;;;;5092520;28;20016;-73
2021/03/06 03:20:45;;;;;;;9.60;5.88;;;-6.40;83.50;;;;;;5092340;28;20028;-74
2021/03/06 03:23:21;;;;;;;9.80;5.80;;;-6.40;83.70;;;;;;5092513;28;20586;-74
2021/03/06 03:25:48;;;;;;;10.13;7.18;;;-6.50;83.70;;;;;;5092138;28;20143;-74
2021/03/06 03:28:15;;;;;;;9.02;5.70;;;-6.50;83.70;;;;;;5092351;28;20042;-73
2021/03/06 03:30:42;;;;;;;12.05;6.72;;;-6.50;83.80;;;;;;5072794;28;20032;-74
2021/03/06 03:33:10;;;;;;;8.70;6.30;;;-6.50;83.90;;;;;;5070816;28;20048;-74
2021/03/06 03:35:39;;;;;;;9.82;6.68;;;-6.50;84.60;;;;;;5070486;28;20029;-75
2021/03/06 03:38:06;;;;;;;10.88;6.75;;;-6.50;84.10;;;;;;5072194;28;20044;-75
2021/03/06 03:40:33;;;;;;;11.98;8.45;;;-6.50;84.20;;;;;;5072071;28;20154;-75
2021/03/06 03:43:00;;;;;;;;;;;-6.50;84.20;;;;;;5072515;28;20021;-75
2021/03/06 03:45:27;;;;;;;11.52;7.85;;;-6.50;84.10;;;;;;5071019;28;19915;-74
2021/03/06 03:47:53;;;;;;;;;;;-6.60;84.20;;;;;;5072647;28;20035;-74
2021/03/06 03:50:20;;;;;;;9.07;6.15;;;-6.60;84.20;;;;;;5055239;28;19904;-75
2021/03/06 03:52:54;;;;;;;9.90;6.07;;;-6.60;84.30;;;;;;5071000;28;20035;-75
2021/03/06 03:55:20;;;;;;;11.00;7.47;;;-6.60;84.40;;;;;;5058177;28;20031;-76
2021/03/06 03:57:49;;;;;;;10.43;7.60;;;-6.60;84.70;;;;;;5071877;28;20048;-75
2021/03/06 04:00:20;;;;;;;11.35;8.55;;;-6.60;84.80;;;;;;5070579;28;20056;-75
2021/03/06 04:02:47;;;;;;;12.55;8.00;;;-6.60;84.90;;;;;;5072044;28;20035;-75
2021/03/06 04:05:17;;;;;;;18.73;9.35;;;-6.60;84.80;;;;;;5066761;28;20485;-76
2021/03/06 04:07:49;;;;;;;14.25;9.25;;;-6.60;84.80;;;;;;5057309;28;20031;-76
2021/03/06 04:10:20;;;;;;;21.52;10.77;;;-6.60;84.80;;;;;;5072443;28;20121;-77
2021/03/06 04:12:47;;;;;;;13.77;9.13;;;-6.70;84.80;;;;;;5071924;28;20021;-74
2021/03/06 04:15:15;;;;;;;13.30;9.07;;;-6.70;84.90;;;;;;5072141;28;20366;-76
2021/03/06 04:17:41;;;;;;;18.20;10.73;;;-6.70;85.00;;;;;;5057940;28;20028;-75
2021/03/06 04:20:09;;;;;;;26.83;12.18;;;-6.70;85.00;;;;;;5071924;28;20086;-76
2021/03/06 04:22:35;;;;;;;15.30;9.30;;;-6.80;85.00;;;;;;5071905;28;20051;-74
2021/03/06 04:25:01;;;;;;;17.75;10.15;;;-6.70;85.10;;;;;;5085082;28;20454;-76
2021/03/06 04:27:27;;;;;;;15.00;8.55;;;-6.80;85.20;;;;;;5075289;28;20030;-74
2021/03/06 04:29:53;;;;;;;16.98;10.63;;;-6.80;85.20;;;;;;5081922;28;20102;-75
2021/03/06 04:32:19;;;;;;;16.00;10.75;;;-6.80;85.20;;;;;;5094822;28;20035;-74
2021/03/06 04:34:45;;;;;;;14.48;9.85;;;-6.80;85.30;;;;;;5093595;28;20012;-74
2021/03/06 04:37:11;;;;;;;20.38;9.35;;;-6.80;85.20;;;;;;5092905;28;20028;-74
2021/03/06 04:39:37;;;;;;;16.08;9.18;;;-6.80;85.40;;;;;;5092079;28;20032;-74
2021/03/06 04:42:03;;;;;;;12.43;8.55;;;-6.70;85.50;;;;;;5104234;28;20437;-75
2021/03/06 04:44:29;;;;;;;11.48;7.95;;;-6.70;85.40;;;;;;5094297;28;20107;-75
2021/03/06 04:46:55;;;;;;;14.98;8.32;;;-6.70;85.40;;;;;;5094858;28;20515;-75
2021/03/06 04:49:21;;;;;;;17.40;9.65;;;-6.70;85.40;;;;;;5076665;28;20066;-76
2021/03/06 04:51:46;;;;;;;11.48;7.95;;;-6.70;85.60;;;;;;5094789;28;20016;-75
2021/03/06 04:54:12;;;;;;;15.00;9.40;;;-6.70;85.60;;;;;;5095039;28;20028;-76
2021/03/06 04:56:38;;;;;;;14.43;8.05;;;-6.60;85.60;;;;;;5094759;28;20024;-76
2021/03/06 04:59:04;;;;;;;16.52;9.70;;;-6.60;85.50;;;;;;5095055;28;20032;-76
2021/03/06 05:01:30;;;;;;;14.77;8.70;;;-6.60;85.60;;;;;;5094796;28;20074;-77
2021/03/06 05:03:56;;;;;;;12.25;7.72;;;-6.50;85.40;;;;;;5076699;28;20062;-76
2021/03/06 05:06:26;;;;;;;12.02;7.43;;;-6.50;85.30;;;;;;5076870;28;20027;-78
2021/03/06 05:08:52;;;;;;;13.25;7.63;;;-6.60;85.30;;;;;;5076336;28;20024;-77
2021/03/06 05:11:18;;;;;;;11.93;7.57;;;-6.60;85.30;;;;;;5086065;28;20093;-76
2021/03/06 05:13:44;;;;;;;13.63;7.35;;;-6.60;85.30;;;;;;5098940;28;20501;-75
2021/03/06 05:16:10;;;;;;;13.75;8.05;;;-6.60;85.30;;;;;;5076089;28;20531;-76
2021/03/06 05:18:36;;;;;;;11.13;6.93;;;-6.60;85.40;;;;;;5082903;28;20029;-75
2021/03/06 05:21:03;;;;;;;14.73;7.40;;;-6.60;85.40;;;;;;5078554;28;20063;-76
2021/03/06 05:23:29;;;;;;;14.63;8.02;;;-6.50;85.40;;;;;;5088527;28;20016;-76
2021/03/06 05:25:55;;;;;;;11.43;7.33;;;-6.50;85.80;;;;;;5060485;28;20040;-77
2021/03/06 05:28:22;;;;;;;14.43;8.27;;;-6.50;85.10;;;;;;5050239;28;20025;-77
2021/03/06 05:30:49;;;;;;;17.10;7.05;;;-6.50;85.10;;;;;;5055863;28;20028;-76
2021/03/06 05:33:16;;;;;;;12.85;7.63;;;-6.50;85.00;;;;;;5058172;28;20048;-74
2021/03/06 05:35:43;;;;;;;10.90;6.95;;;-6.50;85.00;;;;;;5044178;28;20056;-75
2021/03/06 05:38:10;;;;;;;11.60;7.00;;;-6.50;85.00;;;;;;5056969;28;20508;-77
2021/03/06 05:40:42;;;;;;;13.25;7.82;;;-6.50;85.10;;;;;;5055633;28;20293;-75
2021/03/06 05:43:08;;;;;;;13.52;8.98;;;-6.40;85.00;;;;;;5075934;28;20091;-76
2021/03/06 05:45:35;;;;;;;10.10;7.18;;;-6.40;84.80;;;;;;5056096;28;20440;-77
2021/03/06 05:48:02;;;;;;;11.27;7.82;;;-6.40;84.70;;;;;;5056278;28;20056;-74
2021/03/06 05:50:29;;;;;;;13.07;8.05;;;-6.40;84.50;;;;;;5065542;28;20490;-77
2021/03/06 05:52:58;;;;;;;;;;;-6.30;84.40;;;;;;5094520;28;20504;-76
2021/03/06 05:55:26;;;;;;;10.57;5.70;;;-6.30;84.30;;;;;;5075077;28;19914;-76
2021/03/06 05:57:56;;;;;;;4.72;3.60;;;-6.20;84.40;;;;;;5075546;28;20027;-75
2021/03/06 06:00:25;;;;;;;9.98;5.50;;;-6.20;84.10;;;;;;5090994;28;20468;-75
2021/03/06 06:02:58;;;;;;;10.45;6.70;;;-6.30;84.10;;;;;;5079232;28;20029;-76
2021/03/06 06:05:25;;;;;;;7.75;6.05;;;-6.20;84.20;;;;;;5090131;28;20012;-76
2021/03/06 06:07:54;;;;;;;6.13;3.88;;;-6.20;84.00;;;;;;5075493;28;20016;-77
2021/03/06 06:10:20;;;;;;;8.30;5.57;;;-6.20;83.70;;;;;;5091638;28;20024;-77
2021/03/06 06:12:46;;;;;;;10.68;6.03;;;-6.20;83.70;;;;;;5072993;28;20021;-76
2021/03/06 06:15:14;;;;;;;8.77;4.60;;;-6.10;83.70;;;;;;5073239;28;20070;-75
2021/03/06 06:17:40;;;;;;;7.93;5.00;;;-6.00;83.40;;;;;;5072933;28;20020;-76
2021/03/06 06:20:07;;;;;;;8.43;4.88;;;-6.00;83.10;;;;;;5072881;28;20044;-75
2021/03/06 06:22:33;;;;;;;8.05;5.57;;;-6.00;83.00;;;;;;5072989;28;20012;-76
2021/03/06 06:24:59;;;;;;;9.10;4.85;;;-5.90;82.80;;;;;;5074668;28;20028;-77
2021/03/06 06:27:32;;;;;;;8.35;5.13;;;-5.80;82.50;;;;;;5070449;28;20026;-78
2021/03/06 06:30:01;;;;;;;9.52;4.82;;;-5.80;82.20;;;;;;5093291;28;20016;-76
2021/03/06 06:32:46;;;;;;;9.60;5.40;;;-5.70;81.90;;;;;;5081848;28;20496;-77
2021/03/06 06:35:14;;;;;;;7.85;5.15;;;-5.70;81.80;;;;;;5092979;28;20078;-77
2021/03/06 06:37:54;;;;;;;8.32;5.82;;;-5.60;81.70;;;;;;5092538;28;20025;-77
2021/03/06 06:40:22;;;;;;;7.30;4.75;;;-5.60;81.40;;;;;;5074524;28;20480;-75
2021/03/06 06:42:48;;;;;;;9.75;6.13;;;-5.50;81.10;;;;;;5092657;28;20449;-75
2021/03/06 06:45:16;;;;;;;8.35;5.25;;;-5.50;80.70;;;;;;5092813;28;20019;-75
2021/03/06 06:47:47;;;;;;;11.20;5.45;;;-5.40;80.50;;;;;;5081502;28;20017;-77
2021/03/06 06:50:14;;;;;;;7.90;5.60;;;-5.40;80.30;;;;;;5090605;28;20017;-76
2021/03/06 06:52:44;;;;;;;;;;;-5.30;80.20;;;;;;5074533;28;20031;-77
2021/03/06 06:55:11;;;;;;;9.23;5.00;;;-5.20;80.80;;;;;;5092666;28;19904;-77
2021/03/06 06:57:56;;;;;;;6.50;3.80;;;-5.10;80.10;;;;;;5092596;28;20051;-77
2021/03/06 07:00:22;;;;;;;7.00;4.50;;;-5.10;79.30;;;;;;5077928;28;20461;-77
2021/03/06 07:02:59;;;;;;;9.07;4.60;;;-5.00;78.90;;;;;;5091813;28;20052;-76
2021/03/06 07:05:36;;;;;;;4.07;3.42;;;-4.90;78.30;;;;;;5092362;28;20174;-77
2021/03/06 07:08:04;;;;;;;7.75;3.13;;;-4.90;77.90;;;;;;5092458;28;20031;-75
2021/03/06 07:10:39;;;;;;;9.40;5.03;;;-4.80;77.30;;;;;;5091937;28;20023;-77
2021/03/06 07:13:07;;;;;;;6.93;4.78;;;-4.80;77.10;;;;;;5092568;28;20028;-76
2021/03/06 07:15:33;;;;;;;10.48;5.32;;;-4.70;77.30;;;;;;5092124;28;20031;-75
2021/03/06 07:18:02;;;;;;;5.00;3.90;;;-4.60;77.10;;;;;;5092184;28;20099;-76
2021/03/06 07:20:31;;;;;;;10.30;4.95;;;-4.50;76.70;;;;;;5073655;28;20123;-77
2021/03/06 07:22:59;;;;;;;7.82;4.88;;;-4.50;75.60;;;;;;5092380;28;20020;-76
2021/03/06 07:25:26;;;;;;;9.15;5.75;;;-4.40;75.60;;;;;;5091756;28;20044;-76
2021/03/06 07:27:52;;;;;;;9.68;5.45;;;-4.20;75.20;;;;;;5092178;28;20017;-78
2021/03/06 07:30:19;;;;;;;5.57;3.85;;;-4.20;74.50;;;;;;5074021;28;20102;-78
2021/03/06 07:32:47;;;;;;;5.40;3.22;;;-4.00;73.70;;;;;;5081610;28;20071;-77
2021/03/06 07:35:15;;;;;;;5.88;4.55;;;-4.00;72.10;;;;;;5063453;28;20035;-76
2021/03/06 07:37:41;;;;;;;8.45;3.75;;;-3.90;72.00;;;;;;5063737;28;20035;-77
2021/03/06 07:40:09;;;;;;;6.17;3.90;;;-3.70;72.00;;;;;;5075109;28;20446;-75
2021/03/06 07:43:11;;;;;;;6.93;3.50;;;-3.30;72.20;;;;;;5075269;28;20417;-76
2021/03/06 07:45:41;;;;;;;5.45;3.53;;;-1.80;72.30;;;;;;5048192;28;20035;-77
2021/03/06 07:48:19;;;;;;;7.57;3.35;;;-0.10;62.50;;;;;;5071469;28;20020;-75
2021/03/06 07:50:53;;;;;;;6.95;3.95;;;0.80;60.80;;;;;;5071836;28;20413;-76
2021/03/06 07:53:21;;;;;;;8.02;3.85;;;2.00;57.30;;;;;;5071239;28;20028;-76
2021/03/06 07:55:48;;;;;;;5.05;3.90;;;2.60;54.40;;;;;;5071512;28;20044;-79
2021/03/06 07:58:18;;;;;;;9.75;4.97;;;2.90;52.20;;;;;;5053686;28;20025;-78
2021/03/06 08:00:54;;;;;;;7.05;4.75;;;3.20;50.50;;;;;;5069786;28;20044;-77
2021/03/06 08:03:38;;;;;;;7.13;4.55;;;3.40;49.10;;;;;;5074444;28;20670;-77
2021/03/06 08:06:18;;;;;;;12.63;4.55;;;3.60;48.80;;;;;;5074729;28;20103;-77
2021/03/06 08:08:47;;;;;;;8.70;3.85;;;4.00;47.60;;;;;;5084009;28;20020;-77
2021/03/06 08:11:26;;;;;;;8.15;4.43;;;4.70;47.10;;;;;;5058674;28;20468;-77
2021/03/06 08:13:56;;;;;;;9.55;4.78;;;5.30;43.80;;;;;;5084592;28;20095;-76
2021/03/06 08:18:52;;;;;;;12.80;5.30;;;6.10;44.40;;;;;;5084803;28;20112;-83
2021/03/06 08:21:34;;;;;;;9.88;4.80;;;5.70;42.80;;;;;;5070615;28;20515;-77
2021/03/06 08:24:15;;;;;;;9.38;4.85;;;5.80;43.70;;;;;;5084348;28;20116;-79
2021/03/06 08:27:02;;;;;;;5.07;4.05;;;6.20;42.20;;;;;;5075249;28;20472;-79
2021/03/06 08:29:28;;;;;;;4.97;3.63;;;6.30;41.10;;;;;;5095347;28;20500;-78
2021/03/06 08:31:54;;;;;;;10.13;4.07;;;4.80;41.50;;;;;;5077224;28;20492;-80
2021/03/06 08:34:29;;;;;;;8.63;4.65;;;3.10;44.00;;;;;;5094929;28;20012;-76
2021/03/06 08:37:24;;;;;;;7.07;4.40;;;1.90;46.60;;;;;;5094683;28;20020;-79
2021/03/06 08:39:56;;;;;;;7.00;3.78;;;2.40;49.60;;;;;;5091514;28;20028;-78
2021/03/06 08:42:45;;;;;;;13.55;4.00;;;3.80;47.10;;;;;;5064006;28;20102;-78
2021/03/06 08:45:21;;;;;;;12.20;4.38;;;3.60;44.70;;;;;;5085436;28;20096;-80
2021/03/06 08:47:57;;;;;;;5.60;3.90;;;2.80;45.30;;;;;;5082753;28;20029;-78
2021/03/06 08:50:24;;;;;;;6.95;3.97;;;2.30;46.60;;;;;;5080559;28;20031;-78
2021/03/06 08:52:58;;;;;;;6.20;3.30;;;2.70;47.30;;;;;;5087509;28;20486;-79
2021/03/06 08:55:37;;;;;;;9.82;4.22;;;3.00;46.60;;;;;;5093119;28;20257;-78
2021/03/06 08:58:04;;;;;;;5.90;4.05;;;2.50;46.50;;;;;;5088883;28;20012;-78
2021/03/06 09:00:30;;;;;;;;;;;1.90;47.60;;;;;;5076773;28;20385;-80
2021/03/06 09:02:56;;;;;;;4.70;2.90;;;1.20;48.70;;;;;;5094243;28;19916;-77
2021/03/06 09:05:27;;;;;;;9.43;6.35;;;0.70;50.30;;;;;;5085133;28;20036;-78
2021/03/06 09:07:55;;;;;;;11.63;5.20;;;0.10;51.90;;;;;;5079830;28;20025;-78
2021/03/06 09:10:29;;;;;;;8.60;4.60;;;-0.10;52.60;;;;;;5075037;28;20023;-79
2021/03/06 09:13:01;;;;;;;9.02;4.43;;;-0.30;53.40;;;;;;5081141;28;20025;-79
2021/03/06 09:15:37;;;;;;;6.07;4.22;;;-0.40;53.60;;;;;;5081157;28;20458;-78
2021/03/06 09:18:05;;;;;;;5.13;3.35;;;-0.60;53.90;;;;;;5080480;28;20021;-78
2021/03/06 09:20:36;;;;;;;6.55;4.10;;;-0.70;53.80;;;;;;5079875;28;20035;-77
2021/03/06 09:23:02;;;;;;;3.88;2.42;;;-0.90;52.80;;;;;;5080868;28;20035;-79
2021/03/06 09:25:32;;;;;;;6.05;3.25;;;-0.70;52.20;;;;;;5078494;28;20440;-78
2021/03/06 09:27:58;;;;;;;6.90;3.25;;;-0.70;51.80;;;;;;5082045;28;20066;-79
2021/03/06 09:30:37;;;;;;;5.20;3.67;;;-0.70;51.00;;;;;;5072933;28;20527;-78
2021/03/06 09:33:04;;;;;;;4.90;2.80;;;-0.50;50.90;;;;;;5071057;28;20453;-78
2021/03/06 09:35:30;;;;;;;7.45;3.35;;;-0.40;50.60;;;;;;5072519;28;20024;-78
2021/03/06 09:38:11;;;;;;;6.00;3.53;;;-0.50;50.40;;;;;;5082369;28;20416;-78
2021/03/06 09:40:40;;;;;;;5.50;2.95;;;-0.40;51.10;;;;;;5077999;28;20118;-79
2021/03/06 09:43:07;;;;;;;5.68;3.22;;;0.00;50.50;;;;;;5082544;28;20020;-77
2021/03/06 09:45:33;;;;;;;3.78;2.53;;;0.00;49.40;;;;;;5082513;28;20094;-80
2021/03/06 09:48:15;;;;;;;9.05;3.22;;;-0.30;50.30;;;;;;5090818;28;20492;-76
2021/03/06 09:50:43;;;;;;;10.88;3.03;;;-0.90;56.30;;;;;;5063479;28;20020;-78
2021/03/06 09:53:20;;;;;;;9.95;4.82;;;-1.70;61.50;;;;;;5091911;28;20024;-79
2021/03/06 09:56:07;;;;;;;5.97;4.22;;;-1.90;65.50;;;;;;5093475;28;20016;-79
2021/03/06 09:58:33;;;;;;;6.80;4.00;;;-0.90;67.20;;;;;;5093267;28;20016;-77
2021/03/06 10:01:15;;;;;;;7.55;3.60;;;0.50;65.70;;;;;;5093625;28;20513;-77
2021/03/06 10:03:42;;;;;;;4.53;3.40;;;2.20;61.90;;;;;;5072164;28;20028;-78
2021/03/06 10:06:10;;;;;;;4.85;3.08;;;3.50;57.40;;;;;;5083221;28;20025;-80
2021/03/06 10:08:48;;;;;;;6.38;3.67;;;3.20;52.70;;;;;;5074872;28;20035;-80
2021/03/06 10:11:14;;;;;;;3.85;2.78;;;2.50;51.90;;;;;;5093519;28;20016;-82
2021/03/06 10:13:46;;;;;;;6.72;3.55;;;2.30;52.20;;;;;;5093036;28;20020;-78
2021/03/06 10:16:22;;;;;;;;;;;;;;;;;;;;;
2021/03/06 10:18:49;;;;;;;7.80;3.63;;;1.20;51.10;;;;;;5093429;28;20024;-80
2021/03/06 10:21:21;;;;;;;4.57;3.20;;;0.70;52.60;;;;;;5093189;28;20051;-77
2021/03/06 10:23:50;;;;;;;7.10;3.75;;;0.40;52.90;;;;;;5092815;28;20081;-78
2021/03/06 10:26:28;;;;;;;4.45;2.75;;;0.10;52.60;;;;;;5084914;28;20135;-79
2021/03/06 10:29:18;;;;;;;6.22;2.90;;;0.40;52.60;;;;;;5076813;28;20020;-79
2021/03/06 10:31:44;;;;;;;6.63;2.90;;;1.40;52.50;;;;;;5076753;28;20024;-77
2021/03/06 10:34:31;;;;;;;7.85;3.08;;;1.70;50.10;;;;;;5077954;28;20029;-81
2021/03/06 10:37:06;;;;;;;;;;;1.20;50.20;;;;;;5067539;28;20393;-78
2021/03/06 10:39:32;;;;;;;8.50;3.80;;;0.60;50.80;;;;;;5078908;28;20354;-78
2021/03/06 10:42:02;;;;;;;6.65;2.92;;;0.30;52.00;;;;;;5068500;28;20032;-79
2021/03/06 10:44:41;;;;;;;6.75;3.75;;;0.30;52.10;;;;;;5074341;28;20503;-80
2021/03/06 10:47:07;;;;;;;4.43;3.35;;;0.40;52.00;;;;;;5075515;28;20376;-79
2021/03/06 10:49:37;;;;;;;11.27;3.42;;;0.30;51.20;;;;;;5088277;28;20048;-79
2021/03/06 10:52:05;;;;;;;5.03;3.13;;;0.30;51.40;;;;;;5054547;28;20029;-81
2021/03/06 10:54:47;;;;;;;4.03;2.72;;;0.10;51.50;;;;;;5082341;28;20107;-79
2021/03/06 10:57:24;;;;;;;5.13;3.00;;;0.20;51.70;;;;;;5088986;28;20024;-84
2021/03/06 10:59:50;;;;;;;7.10;3.10;;;0.30;50.80;;;;;;5088258;28;20019;-81
2021/03/06 11:02:28;;;;;;;4.32;3.03;;;0.50;50.40;;;;;;5070615;28;20150;-83
2021/03/06 11:04:55;;;;;;;4.35;2.85;;;0.40;49.10;;;;;;5063038;28;20105;-79
2021/03/06 11:07:31;;;;;;;6.27;2.47;;;0.30;49.30;;;;;;5046580;28;20040;-78
2021/03/06 11:09:58;;;;;;;3.75;2.53;;;0.30;49.80;;;;;;5071654;28;20112;-80
2021/03/06 11:12:31;;;;;;;5.47;2.80;;;0.40;50.80;;;;;;5066983;28;20029;-78
2021/03/06 11:15:14;;;;;;;5.30;3.00;;;0.40;50.40;;;;;;5066914;28;20044;-82
2021/03/06 11:17:45;;;;;;;7.07;3.25;;;0.40;50.20;;;;;;5067937;28;20057;-82
2021/03/06 11:20:14;;;;;;;5.50;3.13;;;0.40;50.10;;;;;;5071393;28;20086;-80
2021/03/06 11:22:41;;;;;;;5.07;2.92;;;0.40;49.50;;;;;;5065983;28;20016;-83
2021/03/06 11:25:12;;;;;;;6.90;4.05;;;0.20;49.60;;;;;;5090684;28;20056;-82
2021/03/06 11:27:58;;;;;;;5.53;3.00;;;-0.20;50.70;;;;;;5054604;28;20055;-81
2021/03/06 11:30:26;;;;;;;6.53;2.90;;;-0.50;51.50;;;;;;5070402;28;20096;-80
2021/03/06 11:32:53;;;;;;;5.95;2.63;;;-0.70;52.20;;;;;;5050153;28;20546;-82
2021/03/06 11:35:20;;;;;;;4.85;2.90;;;-0.90;53.00;;;;;;5049997;28;20056;-81
2021/03/06 11:37:46;;;;;;;4.30;2.75;;;-1.30;53.80;;;;;;5062280;28;20043;-81
2021/03/06 11:40:14;;;;;;;4.40;3.40;;;-1.50;54.80;;;;;;5078948;28;20032;-81
2021/03/06 11:42:40;;;;;;;4.72;2.78;;;-1.60;55.20;;;;;;5070818;28;20075;-81
2021/03/06 11:45:08;;;;;;;4.53;2.70;;;-1.70;55.40;;;;;;5081703;28;20431;-80
2021/03/06 11:47:34;;;;;;;4.47;2.85;;;-1.70;54.70;;;;;;5089876;28;20024;-80
2021/03/06 11:50:00;;;;;;;4.40;2.40;;;-1.70;54.60;;;;;;5060590;28;20056;-79
2021/03/06 11:52:26;;;;;;;6.03;2.97;;;-1.50;54.30;;;;;;5084112;28;20048;-77
2021/03/06 11:54:52;;;;;;;4.40;3.95;;;-1.40;53.40;;;;;;5073406;28;20063;-78
2021/03/06 11:57:18;;;;;;;5.30;2.67;;;-1.40;53.40;;;;;;5082876;28;20070;-80
2021/03/06 11:59:44;;;;;;;6.57;2.75;;;-1.30;53.60;;;;;;5082079;28;20029;-82
2021/03/06 12:02:09;;;;;;;11.32;3.05;;;-1.10;53.30;;;;;;5081102;28;20028;-81
2021/03/06 12:04:35;;;;;;;5.70;1.83;;;-0.90;52.90;;;;;;5077148;28;20465;-79
2021/03/06 12:07:01;;;;;;;5.53;2.80;;;-0.90;51.40;;;;;;5076046;28;20032;-84
2021/03/06 12:09:27;;;;;;;5.25;2.63;;;-1.00;51.00;;;;;;5085612;28;20024;-81
2021/03/06 12:11:55;;;;;;;2.30;1.80;;;-1.10;51.20;;;;;;5073808;28;20024;-81
2021/03/06 12:14:21;;;;;;;4.07;2.13;;;-1.00;50.50;;;;;;5070673;28;20367;-83
2021/03/06 12:16:47;;;;;;;2.15;1.70;;;-1.10;50.80;;;;;;5075571;28;20039;-83
2021/03/06 12:19:13;;;;;;;7.65;2.20;;;-1.10;50.20;;;;;;5093458;28;20093;-81
2021/03/06 12:21:39;;;;;;;4.55;2.55;;;-1.30;49.70;;;;;;5084435;28;20033;-83
2021/03/06 12:24:05;;;;;;;3.95;2.00;;;-1.40;50.30;;;;;;5075474;28;21668;-82
2021/03/06 12:26:31;;;;;;;4.38;2.67;;;-1.50;50.60;;;;;;5072911;28;20051;-82
2021/03/06 12:28:57;;;;;;;4.68;1.90;;;-1.70;49.80;;;;;;5077423;28;20024;-82
2021/03/06 12:31:25;;;;;;;5.57;2.20;;;-1.80;50.70;;;;;;5095179;28;20023;-82
2021/03/06 12:33:51;;;;;;;2.63;1.65;;;-1.90;50.50;;;;;;5095841;28;20415;-80
2021/03/06 12:36:17;;;;;;;1.27;1.17;;;-2.00;50.70;;;;;;5095820;28;20084;-81
2021/03/06 12:38:42;;;;;;;5.20;1.52;;;-2.10;51.80;;;;;;5088960;28;20028;-82
2021/03/06 12:41:08;;;;;;;4.43;2.05;;;-2.10;52.30;;;;;;5087246;28;20055;-81
2021/03/06 12:43:34;;;;;;;3.40;1.63;;;-2.20;52.60;;;;;;5086168;28;20024;-80
2021/03/06 12:46:00;;;;;;;3.38;1.88;;;-2.20;52.60;;;;;;5090829;28;20477;-81
2021/03/06 12:48:26;;;;;;;5.03;2.10;;;-2.30;52.80;;;;;;5079182;28;20024;-78
2021/03/06 12:50:53;;;;;;;3.55;1.83;;;-2.30;53.30;;;;;;5076328;28;20027;-75
2021/03/06 12:53:19;;;;;;;3.85;2.63;;;-2.20;53.60;;;;;;5095083;28;20020;-77
2021/03/06 12:55:45;;;;;;;3.55;2.13;;;-2.20;53.70;;;;;;5095102;28;20023;-79
2021/03/06 12:58:11;;;;;;;4.50;2.15;;;-2.20;53.70;;;;;;5094353;28;20016;-80
2021/03/06 13:00:36;;;;;;;4.80;2.45;;;-2.20;53.70;;;;;;5094562;28;20024;-82
2021/03/06 13:03:03;;;;;;;4.60;2.30;;;-2.20;53.80;;;;;;5080852;28;20078;-82
2021/03/06 13:05:29;;;;;;;4.10;2.15;;;-2.10;54.20;;;;;;5081614;28;20427;-79